ROMMA est une association bénévole à but non lucratif. Votre soutien est indispensable : ADHERER à ROMMA ou FAIRE un DON

Crest - (26, Drôme)

Vallée de la Drôme (315 m)   Longitude: 5°2' E   Latitude: 44°44' N Station partenaire n°62
 

Détail journalier du     <<     >>

Température Precipitation Humidité Pression Vent Dir Rafale Dir. rafale Ensol.
Heure (°C) (mm) (%) (hPa) (km/h) (km/h) (min)
01:00 18.1054101503SE0
02:00 17.105410151SE8SE0
03:00 16.805410151SE6SE0
04:00 16.405510151SE6ESE0
05:00 16.305410152SE11E0
06:00 15.405710152SE10SE0
07:00 15.105710153SE13ESE0
08:00 15.805510156ESE16ESE12
09:00 18.804810158ESE21ESE29
10:00 22.403910156ESE16ESE60
11:00 24.804010164SE15ESE48
12:00 27.203510154ESE13ESE54
13:00 28.902710157SE26ESE57
14:00 30.002410149SE27SE39
15:00 31.102110148SE23ESE57
16:00 31.401910138SE32SE57
17:00 31.901810139SE27SE60
18:00 31.102510138SE26SE60
19:00 29.702910129SE29SE60
20:00 27.803510137SE29SE11
21:00 26.503110136SE26SSE0
22:00 24.803610146SE19SE0
23:00 24.304010145SE18SE0
minuit 21.806510148SSE24SE0

Graphique du 17-08-2019

 

Serveur OMMA